createdAt,value
2023-02-09T00:01:47.506Z,14.87
2023-02-09T00:04:15.570Z,14.17
2023-02-09T00:06:45.065Z,15.63
2023-02-09T00:09:12.777Z,15.03
2023-02-09T00:11:58.351Z,14.70
2023-02-09T00:14:26.858Z,17.00
2023-02-09T00:16:55.562Z,17.70
2023-02-09T00:19:23.625Z,17.37
2023-02-09T00:21:53.196Z,15.70
2023-02-09T00:24:21.311Z,15.70
2023-02-09T00:26:49.432Z,15.80
2023-02-09T00:29:22.915Z,14.17
2023-02-09T00:31:53.935Z,15.17
2023-02-09T00:34:23.026Z,15.07
2023-02-09T00:36:54.388Z,15.17
2023-02-09T00:39:25.041Z,17.33
2023-02-09T00:42:11.741Z,15.67
2023-02-09T00:44:43.311Z,16.73
2023-02-09T00:47:13.382Z,17.30
2023-02-09T00:49:42.453Z,17.07
2023-02-09T00:52:14.183Z,16.50
2023-02-09T00:54:44.248Z,14.87
2023-02-09T00:57:14.884Z,15.97
2023-02-09T00:59:42.568Z,16.50
2023-02-09T01:02:10.443Z,15.40
2023-02-09T01:04:40.110Z,15.83
2023-02-09T01:07:07.863Z,16.57
2023-02-09T01:09:37.149Z,15.13
2023-02-09T01:12:08.330Z,14.57
2023-02-09T01:14:39.832Z,14.80
2023-02-09T01:17:07.669Z,14.70
2023-02-09T01:19:36.029Z,15.37
2023-02-09T01:22:04.898Z,15.27
2023-02-09T01:24:32.860Z,14.87
2023-02-09T01:27:01.920Z,14.60
2023-02-09T01:29:32.109Z,14.67
2023-02-09T01:32:00.018Z,15.23
2023-02-09T01:34:27.911Z,14.30
2023-02-09T01:36:55.638Z,14.57
2023-02-09T01:39:23.530Z,14.83
2023-02-09T01:41:51.401Z,14.27
2023-02-09T01:44:56.599Z,14.57
2023-02-09T01:47:25.737Z,14.73
2023-02-09T01:49:53.872Z,14.77
2023-02-09T01:52:26.961Z,15.53
2023-02-09T01:54:58.556Z,14.73
2023-02-09T01:57:30.686Z,14.23
2023-02-09T02:00:03.797Z,15.20
2023-02-09T02:02:46.170Z,15.17
2023-02-09T02:05:14.551Z,14.23
2023-02-09T02:07:47.395Z,15.43
2023-02-09T02:10:15.304Z,14.73
2023-02-09T02:12:43.737Z,15.07
2023-02-09T02:15:12.940Z,13.73
2023-02-09T02:17:57.058Z,14.93
2023-02-09T02:20:55.029Z,14.63
2023-02-09T02:23:31.456Z,14.03
2023-02-09T02:26:35.479Z,14.77
2023-02-09T02:29:25.306Z,15.23
2023-02-09T02:32:16.905Z,14.97
2023-02-09T02:34:51.593Z,13.83
2023-02-09T02:37:38.494Z,14.13
2023-02-09T02:40:17.744Z,14.53
2023-02-09T02:42:52.858Z,13.67
2023-02-09T02:45:36.038Z,15.30
2023-02-09T02:48:14.379Z,13.50
2023-02-09T02:50:50.486Z,13.90
2023-02-09T02:53:21.496Z,14.17
2023-02-09T02:55:51.198Z,14.90
2023-02-09T02:58:23.001Z,13.47
2023-02-09T03:00:53.624Z,14.07
2023-02-09T03:03:27.606Z,13.63
2023-02-09T03:05:56.352Z,14.30
2023-02-09T03:08:24.329Z,14.13
2023-02-09T03:10:52.267Z,13.83
2023-02-09T03:13:33.571Z,14.57
2023-02-09T03:16:17.086Z,14.33
2023-02-09T03:18:58.507Z,13.33
2023-02-09T03:21:39.105Z,15.00
2023-02-09T03:24:14.262Z,13.60
2023-02-09T03:26:47.946Z,13.63
2023-02-09T03:29:17.752Z,13.47
2023-02-09T03:31:46.323Z,13.90
2023-02-09T03:34:16.581Z,13.87
2023-02-09T03:36:46.693Z,14.33
2023-02-09T03:39:14.493Z,14.07
2023-02-09T03:41:42.321Z,14.63
2023-02-09T03:44:28.320Z,13.97
2023-02-09T03:46:58.289Z,13.70
2023-02-09T03:49:29.343Z,13.90
2023-02-09T03:51:57.100Z,12.80
2023-02-09T03:54:24.885Z,12.90
2023-02-09T03:56:52.643Z,12.77
2023-02-09T03:59:20.961Z,14.03
2023-02-09T04:01:48.764Z,13.90
2023-02-09T04:04:16.515Z,13.10
2023-02-09T04:06:46.200Z,12.63
2023-02-09T04:09:14.760Z,13.43
2023-02-09T04:11:42.659Z,13.93
2023-02-09T04:14:10.768Z,14.07
2023-02-09T04:16:39.145Z,13.40
2023-02-09T04:19:09.492Z,13.07
2023-02-09T04:21:37.487Z,12.67
2023-02-09T04:24:08.199Z,13.73
2023-02-09T04:26:36.726Z,12.80
2023-02-09T04:29:04.926Z,13.23
2023-02-09T04:31:33.023Z,13.73
2023-02-09T04:34:00.962Z,12.70
2023-02-09T04:36:29.348Z,13.30
2023-02-09T04:38:56.963Z,13.17
2023-02-09T04:41:26.186Z,12.70
2023-02-09T04:43:53.938Z,12.87
2023-02-09T04:46:21.608Z,12.73
2023-02-09T04:48:49.313Z,11.93
2023-02-09T04:51:17.072Z,12.47
2023-02-09T04:53:44.810Z,12.70
2023-02-09T04:56:15.377Z,12.03
2023-02-09T04:59:03.157Z,13.20
2023-02-09T05:01:32.688Z,13.27
2023-02-09T05:04:00.509Z,13.67
2023-02-09T05:06:28.460Z,12.10
2023-02-09T05:08:56.262Z,12.83
2023-02-09T05:11:25.665Z,13.60
2023-02-09T05:13:54.891Z,12.77
2023-02-09T05:16:22.679Z,13.40
2023-02-09T05:18:51.308Z,13.17
2023-02-09T05:21:18.965Z,14.97
2023-02-09T05:23:49.838Z,13.53
2023-02-09T05:26:17.564Z,13.07
2023-02-09T05:28:45.192Z,14.00
2023-02-09T05:31:14.395Z,14.13
2023-02-09T05:33:42.385Z,14.37
2023-02-09T05:36:12.600Z,14.17
2023-02-09T05:38:41.013Z,13.67
2023-02-09T05:41:11.055Z,13.63
2023-02-09T05:43:39.391Z,14.37
2023-02-09T05:46:08.452Z,13.97
2023-02-09T05:48:37.924Z,14.80
2023-02-09T05:51:06.474Z,14.33
2023-02-09T05:53:34.205Z,14.30
2023-02-09T05:56:01.929Z,13.47
2023-02-09T05:58:29.739Z,13.47
2023-02-09T06:00:58.179Z,14.37
2023-02-09T06:03:25.895Z,14.67
2023-02-09T06:05:55.009Z,13.30
2023-02-09T06:08:22.731Z,15.47
2023-02-09T06:10:50.529Z,14.00
2023-02-09T06:13:18.268Z,14.93
2023-02-09T06:15:46.173Z,14.13
2023-02-09T06:18:13.946Z,14.80
2023-02-09T06:20:42.110Z,15.10
2023-02-09T06:23:11.465Z,14.77
2023-02-09T06:25:39.989Z,14.17
2023-02-09T06:28:08.246Z,14.97
2023-02-09T06:30:36.245Z,14.97
2023-02-09T06:33:04.208Z,14.70
2023-02-09T06:35:32.127Z,14.03
2023-02-09T06:38:04.678Z,15.00
2023-02-09T06:40:33.977Z,15.03
2023-02-09T06:43:04.627Z,13.83
2023-02-09T06:45:33.928Z,14.30
2023-02-09T06:48:01.752Z,14.30
2023-02-09T06:50:29.620Z,18.27
2023-02-09T06:52:58.641Z,29.10
2023-02-09T06:55:26.797Z,27.57
2023-02-09T06:57:57.350Z,19.83
2023-02-09T07:00:25.716Z,18.07
2023-02-09T07:02:54.108Z,16.30
2023-02-09T07:05:22.426Z,16.10
2023-02-09T07:07:50.254Z,17.07
2023-02-09T07:10:19.671Z,16.70
2023-02-09T07:12:47.958Z,15.30
2023-02-09T07:15:17.545Z,15.70
2023-02-09T07:17:45.326Z,15.93
2023-02-09T07:20:13.830Z,15.37
2023-02-09T07:22:41.960Z,16.40
2023-02-09T07:25:10.413Z,15.93
2023-02-09T07:27:38.117Z,16.07
2023-02-09T07:30:06.469Z,16.60
2023-02-09T07:32:35.476Z,16.10
2023-02-09T07:35:03.269Z,15.33
2023-02-09T07:37:31.163Z,15.43
2023-02-09T07:39:59.687Z,15.50
2023-02-09T07:42:27.453Z,16.80
2023-02-09T07:45:02.144Z,17.53
2023-02-09T07:47:30.035Z,16.33
2023-02-09T07:49:59.367Z,17.13
2023-02-09T07:52:27.144Z,16.37
2023-02-09T07:54:54.877Z,17.47
2023-02-09T07:57:22.878Z,14.50
2023-02-09T07:59:50.593Z,15.93
2023-02-09T08:02:28.750Z,15.23
2023-02-09T08:05:01.766Z,16.80
2023-02-09T08:07:31.754Z,16.07
2023-02-09T08:09:59.798Z,16.97
2023-02-09T08:12:44.698Z,15.27
2023-02-09T08:15:16.615Z,15.57
2023-02-09T08:17:44.585Z,15.90
2023-02-09T08:20:17.677Z,15.73
2023-02-09T08:22:49.849Z,16.43
2023-02-09T08:25:21.087Z,15.07
2023-02-09T08:27:49.000Z,16.97
2023-02-09T08:30:18.528Z,16.13
2023-02-09T08:32:46.748Z,15.67
2023-02-09T08:35:16.035Z,16.63
2023-02-09T08:37:43.778Z,17.17
2023-02-09T08:40:12.486Z,15.50
2023-02-09T08:42:40.151Z,16.23
2023-02-09T08:45:08.796Z,16.27
2023-02-09T08:47:36.594Z,15.80
2023-02-09T08:50:06.545Z,16.50
2023-02-09T08:52:35.924Z,16.23
2023-02-09T08:55:03.875Z,16.27
2023-02-09T08:57:43.187Z,16.83
2023-02-09T09:00:13.583Z,17.07
2023-02-09T09:02:41.296Z,16.27
2023-02-09T09:05:09.287Z,15.83
2023-02-09T09:07:38.431Z,16.07
2023-02-09T09:10:08.765Z,15.73
2023-02-09T09:12:37.576Z,16.07
2023-02-09T09:15:06.260Z,16.27
2023-02-09T09:17:33.977Z,16.60
2023-02-09T09:20:01.725Z,15.47
2023-02-09T09:22:29.707Z,16.50
2023-02-09T09:24:58.854Z,16.50
2023-02-09T09:27:27.122Z,16.67
2023-02-09T09:29:55.091Z,16.07
2023-02-09T09:32:24.968Z,16.87
2023-02-09T09:34:54.036Z,16.63
2023-02-09T09:37:22.575Z,16.07
2023-02-09T09:39:50.730Z,16.63
2023-02-09T09:42:26.069Z,16.33
2023-02-09T09:44:54.208Z,15.80
2023-02-09T09:47:27.523Z,17.17
2023-02-09T09:49:55.320Z,16.53
2023-02-09T09:52:31.088Z,16.43
2023-02-09T09:54:59.317Z,16.07
2023-02-09T09:57:31.016Z,16.23
2023-02-09T09:59:59.283Z,16.30
2023-02-09T10:02:31.022Z,16.47
2023-02-09T10:05:16.378Z,17.20
2023-02-09T10:07:49.699Z,16.63
2023-02-09T10:10:24.820Z,16.87
2023-02-09T10:12:56.728Z,16.07
2023-02-09T10:15:30.624Z,18.23
2023-02-09T10:17:59.855Z,18.30
2023-02-09T10:20:44.238Z,18.90
2023-02-09T10:23:21.563Z,19.37
2023-02-09T10:25:55.795Z,19.80
2023-02-09T10:28:27.757Z,18.07
2023-02-09T10:30:57.551Z,20.60
2023-02-09T10:33:26.169Z,19.90
2023-02-09T10:35:56.377Z,21.30
2023-02-09T10:38:29.702Z,22.07
2023-02-09T10:40:59.815Z,20.43
2023-02-09T10:43:32.250Z,22.30
2023-02-09T10:46:03.631Z,22.27
2023-02-09T10:48:41.650Z,21.80
2023-02-09T10:51:15.071Z,25.00
2023-02-09T10:53:59.745Z,25.00
2023-02-09T10:56:28.803Z,23.57
2023-02-09T10:59:03.505Z,23.73
2023-02-09T11:01:35.381Z,22.80
2023-02-09T11:04:06.565Z,21.37
2023-02-09T11:06:43.599Z,22.97
2023-02-09T11:09:16.378Z,23.70
2023-02-09T11:11:45.093Z,23.77
2023-02-09T11:14:16.433Z,22.67
2023-02-09T11:17:01.578Z,22.10
2023-02-09T11:20:05.750Z,21.77
2023-02-09T11:22:59.406Z,21.53
2023-02-09T11:25:29.862Z,22.47
2023-02-09T11:28:10.885Z,22.23
2023-02-09T11:31:01.786Z,23.27
2023-02-09T11:33:39.947Z,20.67
2023-02-09T11:36:21.298Z,22.13
2023-02-09T11:38:54.176Z,22.87
2023-02-09T11:41:47.838Z,22.57
2023-02-09T11:44:25.696Z,22.77
2023-02-09T11:47:04.461Z,23.07
2023-02-09T11:49:43.024Z,23.17
2023-02-09T11:52:15.236Z,23.17
2023-02-09T11:54:47.588Z,22.03
2023-02-09T11:57:27.689Z,22.63
2023-02-09T11:59:58.657Z,22.80
2023-02-09T12:02:42.090Z,23.90
2023-02-09T12:05:13.312Z,23.67
2023-02-09T12:07:44.795Z,23.03
2023-02-09T12:10:20.743Z,23.60
2023-02-09T12:12:54.720Z,22.90
2023-02-09T12:15:25.878Z,22.87
2023-02-09T12:18:00.191Z,24.83
2023-02-09T12:20:32.332Z,23.27
2023-02-09T12:23:07.745Z,24.97
2023-02-09T12:25:51.582Z,24.00
2023-02-09T12:28:41.311Z,24.23
2023-02-09T12:31:16.233Z,24.90
2023-02-09T12:34:13.383Z,24.40
2023-02-09T12:37:02.915Z,25.43
2023-02-09T12:39:34.980Z,23.37
2023-02-09T12:42:26.994Z,24.80
2023-02-09T12:44:57.868Z,24.57
2023-02-09T12:47:43.731Z,24.75
2023-02-09T12:50:28.189Z,24.73
2023-02-09T12:53:32.204Z,25.08
2023-02-09T12:56:03.034Z,25.00
2023-02-09T12:58:39.132Z,24.25
2023-02-09T13:01:07.550Z,23.85
2023-02-09T13:03:43.496Z,23.98
2023-02-09T13:06:28.498Z,24.05
2023-02-09T13:08:59.579Z,24.08
2023-02-09T13:11:31.346Z,22.83
2023-02-09T13:14:03.250Z,23.08
2023-02-09T13:17:02.134Z,23.83
2023-02-09T13:19:53.175Z,23.30
2023-02-09T13:22:31.980Z,22.83
2023-02-09T13:25:02.830Z,24.23
2023-02-09T13:27:34.014Z,23.67
2023-02-09T13:30:01.743Z,23.60
2023-02-09T13:32:50.667Z,23.50
2023-02-09T13:35:25.182Z,23.92
2023-02-09T13:37:57.597Z,23.40
2023-02-09T13:40:27.460Z,23.87
2023-02-09T13:42:58.206Z,24.42
2023-02-09T13:45:28.070Z,24.67
2023-02-09T13:47:56.961Z,24.10
2023-02-09T13:50:28.156Z,23.10
2023-02-09T13:53:09.203Z,22.35
2023-02-09T13:55:39.867Z,23.83
2023-02-09T13:58:10.015Z,23.70
2023-02-09T14:00:42.332Z,22.30
2023-02-09T14:03:16.415Z,22.85
2023-02-09T14:05:52.410Z,23.17
2023-02-09T14:08:22.211Z,23.37
2023-02-09T14:10:56.023Z,23.08
2023-02-09T14:13:28.755Z,23.25
2023-02-09T14:16:09.279Z,23.15
2023-02-09T14:18:50.293Z,22.90
2023-02-09T14:21:22.439Z,22.87
2023-02-09T14:24:16.628Z,22.98
2023-02-09T14:26:47.727Z,23.70
2023-02-09T14:29:19.010Z,23.40
2023-02-09T14:31:49.147Z,23.65
2023-02-09T14:34:27.991Z,23.27
2023-02-09T14:36:58.247Z,22.85
2023-02-09T14:39:31.281Z,21.27
2023-02-09T14:42:14.874Z,22.75
2023-02-09T14:44:47.248Z,23.13
2023-02-09T14:47:29.685Z,23.10
2023-02-09T14:49:58.840Z,23.17
2023-02-09T14:52:29.450Z,24.77
2023-02-09T14:55:01.421Z,24.92
2023-02-09T14:57:32.030Z,23.25
2023-02-09T15:00:00.190Z,23.50
2023-02-09T15:02:28.999Z,22.70
2023-02-09T15:04:56.873Z,22.33
2023-02-09T15:07:33.025Z,24.37
2023-02-09T15:10:02.747Z,22.95
2023-02-09T15:12:30.807Z,25.03
2023-02-09T15:15:01.352Z,24.80
2023-02-09T15:17:30.961Z,23.55
2023-02-09T15:19:59.789Z,23.38
2023-02-09T15:22:27.703Z,22.80
2023-02-09T15:24:55.494Z,24.13
2023-02-09T15:27:27.692Z,24.00
2023-02-09T15:29:59.402Z,24.10
2023-02-09T15:32:28.509Z,24.02
2023-02-09T15:34:56.339Z,24.30
2023-02-09T15:37:26.522Z,23.88
2023-02-09T15:39:57.284Z,23.98
2023-02-09T15:42:44.487Z,23.52
2023-02-09T15:45:35.000Z,24.95
2023-02-09T15:48:03.469Z,23.38
2023-02-09T15:50:32.821Z,23.97
2023-02-09T15:53:04.043Z,23.47
2023-02-09T15:55:32.083Z,25.45
2023-02-09T15:58:01.553Z,24.63
2023-02-09T16:00:31.447Z,23.60
2023-02-09T16:03:01.139Z,23.88
2023-02-09T16:05:30.595Z,25.60
2023-02-09T16:08:00.693Z,24.67
2023-02-09T16:10:30.310Z,24.57
2023-02-09T16:12:58.552Z,24.80
2023-02-09T16:15:28.543Z,25.00
2023-02-09T16:17:56.298Z,23.70
2023-02-09T16:20:25.990Z,23.93
2023-02-09T16:22:55.653Z,23.03
2023-02-09T16:25:25.707Z,25.33
2023-02-09T16:27:55.200Z,24.53
2023-02-09T16:30:25.892Z,25.20
2023-02-09T16:32:55.796Z,24.33
2023-02-09T16:35:25.328Z,25.17
2023-02-09T16:37:56.044Z,24.57
2023-02-09T16:40:27.469Z,24.57
2023-02-09T16:42:57.744Z,26.40
2023-02-09T16:45:27.150Z,26.23
2023-02-09T16:47:59.426Z,25.53
2023-02-09T16:50:33.072Z,25.70
2023-02-09T16:53:02.926Z,25.70
2023-02-09T16:55:32.473Z,25.93
2023-02-09T16:58:02.137Z,25.50
2023-02-09T17:00:33.293Z,26.77
2023-02-09T17:03:13.993Z,26.40
2023-02-09T17:05:42.992Z,25.77
2023-02-09T17:08:17.104Z,28.63
2023-02-09T17:10:46.333Z,27.10
2023-02-09T17:13:17.322Z,26.50
2023-02-09T17:15:46.957Z,27.97
2023-02-09T17:18:18.892Z,26.40
2023-02-09T17:20:50.784Z,27.73
2023-02-09T17:23:22.871Z,27.13
2023-02-09T17:25:54.925Z,28.77
2023-02-09T17:28:23.196Z,27.63
2023-02-09T17:30:53.244Z,28.67
2023-02-09T17:33:24.731Z,28.00
2023-02-09T17:36:23.946Z,27.77
2023-02-09T17:38:41.800Z,29.13
2023-02-09T17:41:15.774Z,30.77
2023-02-09T17:43:43.572Z,31.40
2023-02-09T17:46:13.125Z,30.63
2023-02-09T17:48:42.288Z,39.40
2023-02-09T17:51:19.936Z,40.73
2023-02-09T17:53:48.763Z,37.63
2023-02-09T17:56:17.020Z,33.60
2023-02-09T17:58:45.342Z,30.90
2023-02-09T18:01:26.430Z,30.73
2023-02-09T18:03:57.736Z,30.00
2023-02-09T18:06:33.652Z,29.00
2023-02-09T18:09:02.478Z,27.73
2023-02-09T18:11:42.035Z,29.77
2023-02-09T18:14:13.108Z,33.37
2023-02-09T18:16:41.230Z,34.47
2023-02-09T18:19:10.717Z,34.30
2023-02-09T18:21:38.807Z,32.97
2023-02-09T18:24:07.883Z,33.57
2023-02-09T18:26:35.785Z,32.97
2023-02-09T18:29:03.563Z,33.00
2023-02-09T18:31:31.371Z,32.93
2023-02-09T18:33:59.064Z,31.93
2023-02-09T18:36:28.379Z,31.67
2023-02-09T18:38:56.062Z,31.20
2023-02-09T18:41:24.798Z,30.67
2023-02-09T18:43:54.385Z,30.23
2023-02-09T18:46:24.546Z,31.13
2023-02-09T18:48:52.797Z,33.07
2023-02-09T18:51:20.959Z,34.97
2023-02-09T18:53:51.276Z,34.20
2023-02-09T18:56:20.280Z,34.83
2023-02-09T18:58:50.316Z,37.40
2023-02-09T19:01:20.654Z,43.17
2023-02-09T19:03:50.724Z,41.33
2023-02-09T19:06:20.418Z,40.80
2023-02-09T19:08:50.605Z,43.43
2023-02-09T19:11:20.878Z,42.03
2023-02-09T19:14:09.791Z,40.53
2023-02-09T19:16:40.930Z,37.13
2023-02-09T19:19:12.284Z,37.87
2023-02-09T19:21:40.072Z,37.30
2023-02-09T19:24:10.548Z,35.03
2023-02-09T19:26:38.150Z,35.87
2023-02-09T19:29:06.724Z,35.17
2023-02-09T19:31:34.529Z,35.10
2023-02-09T19:34:02.973Z,37.27
2023-02-09T19:36:31.191Z,35.30
2023-02-09T19:39:00.388Z,34.77
2023-02-09T19:41:29.534Z,33.93
2023-02-09T19:43:57.688Z,33.80
2023-02-09T19:46:26.706Z,32.77
2023-02-09T19:48:54.697Z,33.37
2023-02-09T19:51:23.174Z,33.93
2023-02-09T19:53:51.977Z,34.87
2023-02-09T19:56:23.641Z,32.27
2023-02-09T19:58:53.648Z,33.70
2023-02-09T20:01:22.252Z,33.50
2023-02-09T20:03:52.555Z,32.87
2023-02-09T20:06:20.549Z,33.67
2023-02-09T20:08:48.500Z,36.80
2023-02-09T20:11:19.318Z,37.57
2023-02-09T20:13:49.845Z,38.90
2023-02-09T20:16:22.575Z,35.83
2023-02-09T20:18:51.436Z,36.97
2023-02-09T20:21:20.614Z,40.73
2023-02-09T20:23:48.997Z,40.63
2023-02-09T20:26:19.459Z,40.67
2023-02-09T20:28:48.846Z,40.00
2023-02-09T20:31:21.446Z,39.63
2023-02-09T20:33:49.683Z,43.57
2023-02-09T20:36:18.513Z,42.37
2023-02-09T20:38:46.357Z,43.80
2023-02-09T20:41:16.387Z,38.03
2023-02-09T20:44:02.122Z,35.57
2023-02-09T20:46:50.716Z,34.23
2023-02-09T20:49:19.073Z,35.10
2023-02-09T20:51:47.378Z,34.03
2023-02-09T20:54:15.605Z,30.20
2023-02-09T20:56:44.073Z,29.97
2023-02-09T20:59:13.119Z,27.97
2023-02-09T21:01:42.628Z,30.20
2023-02-09T21:04:10.968Z,28.40
2023-02-09T21:06:39.513Z,26.30
2023-02-09T21:09:08.924Z,25.87
2023-02-09T21:11:36.941Z,25.97
2023-02-09T21:14:04.720Z,27.53
2023-02-09T21:16:33.482Z,26.33
2023-02-09T21:19:03.282Z,27.87
2023-02-09T21:21:31.311Z,28.43
2023-02-09T21:23:59.290Z,28.37
2023-02-09T21:26:28.772Z,29.47
2023-02-09T21:28:58.157Z,29.93
2023-02-09T21:31:28.376Z,29.97
2023-02-09T21:33:56.875Z,30.93
2023-02-09T21:36:26.043Z,30.07
2023-02-09T21:38:54.048Z,31.43
2023-02-09T21:41:43.081Z,30.53
2023-02-09T21:44:12.055Z,30.47
2023-02-09T21:46:39.939Z,30.60
2023-02-09T21:49:08.293Z,29.00
2023-02-09T21:51:37.890Z,30.33
2023-02-09T21:54:06.111Z,32.47
2023-02-09T21:56:34.026Z,32.27
2023-02-09T21:59:01.742Z,31.17
2023-02-09T22:01:31.396Z,33.93
2023-02-09T22:04:00.644Z,34.43
2023-02-09T22:06:31.007Z,34.57
2023-02-09T22:09:02.819Z,32.57
2023-02-09T22:11:30.861Z,31.50
2023-02-09T22:13:59.147Z,30.97
2023-02-09T22:16:27.011Z,32.17
2023-02-09T22:18:54.709Z,31.23
2023-02-09T22:21:22.606Z,30.17
2023-02-09T22:23:50.324Z,31.33
2023-02-09T22:26:19.638Z,30.33
2023-02-09T22:28:47.655Z,29.33
2023-02-09T22:31:17.054Z,29.23
2023-02-09T22:33:45.432Z,29.47
2023-02-09T22:36:14.936Z,29.50
2023-02-09T22:38:44.798Z,29.70
2023-02-09T22:41:22.156Z,27.80
2023-02-09T22:43:53.005Z,28.40
2023-02-09T22:46:22.362Z,28.47
2023-02-09T22:48:53.871Z,28.00
2023-02-09T22:51:22.116Z,27.03
2023-02-09T22:53:49.753Z,28.20
2023-02-09T22:56:18.041Z,28.97
2023-02-09T22:58:45.749Z,28.43
2023-02-09T23:01:15.341Z,27.77
2023-02-09T23:03:43.209Z,27.53
2023-02-09T23:06:14.878Z,28.00
2023-02-09T23:08:42.569Z,26.90
2023-02-09T23:11:12.728Z,27.47
2023-02-09T23:13:41.084Z,26.80
2023-02-09T23:16:11.098Z,28.47
2023-02-09T23:18:41.336Z,28.53
2023-02-09T23:21:09.555Z,29.90
2023-02-09T23:23:37.619Z,28.50
2023-02-09T23:26:05.512Z,28.43
2023-02-09T23:28:33.692Z,27.73
2023-02-09T23:31:05.429Z,28.40
2023-02-09T23:33:34.258Z,29.10
2023-02-09T23:36:05.392Z,28.23
2023-02-09T23:38:33.560Z,30.23
2023-02-09T23:41:05.584Z,30.07
2023-02-09T23:43:33.318Z,33.53
2023-02-09T23:46:01.745Z,34.03
2023-02-09T23:48:29.815Z,32.50
2023-02-09T23:51:00.388Z,32.50
2023-02-09T23:53:30.570Z,30.73
2023-02-09T23:56:03.671Z,30.37
2023-02-09T23:58:31.896Z,28.57
